Etusivu
METAR-TAF:

METAR-TAF

Lentoasemat :

Whistler, Brittiläinen Kolumbia, Kanada

Leveyspiiri: 50-08N, Pituuspiiri: 122-57W, korkeus merenpinnasta: 658 m

Tämänhetkinen sää

Tämä raportti tehtiin 49 minuuttia sitten, kello 16.00 UTC
tyyntä
Lämpötila 9°C
Kosteus 81%
Ilmanpaine 1023 hPa
Näkyvyys: 24.1 km
Hajonneita pilviä 1700 ft:n korkeudessa

METAR: CWAE 031600Z 00000KT 15SM BKN017 09/06 A3021 RMK SC7 WND ESTD SLP237

Aika: 09:49 (16:49 UTC)


TAF: puuttuu

Säähavainnot ja -ennusteet yli 4000 lentoasemalta (METAR- ja TAF-raportit).

Käytössä olevat sääasemat on merkitty karttaan keltaisilla ja punaisilla pisteillä.

Aseta hiiri pisteen päälle nähdäksesi sääaseman nimen.

Klikkaa sitten nähdäksesi säähavainnot ja -ennusteet.

Kartan vaihtaminen: klikkaa mustalla rastilla varustettuja vihreitä pisteitä, niin voit zoomata sisään; viivalla varustettua vihreää pistettä, niin voit zoomata ulos tai vihreitä nuolia, niin pääset viereisille kartoille.


METAR-TAF: